Details From UASP - Pavlodar
To UAAH - Balkhash
Flight Number -
Tags Standard
Created
Modified
Stats Distance 339 nm / 628 km
Max Altitude 38,057 ft / 11,600 m
Waypoints 13
Social Downloads 1
Likes 0
Share VATSIM

Download

Looking for another format? Having issues loading an existing format? Contact us
Advertisement - Login to hide

Notes

None

Route

UASP PW TVG213 +52.22_+077.21 EKTUS +51.22_+076.70 GOBSO AGINU ULKAP AGPIN +48.13_+075.48 OBARU UAAH

ID Type Via Altitude Latitude Longitude Leg Dist Tot Dist Heading (true) Name
O UASP APT - 396 ft / 121 m 52.19534˚ 77.07331˚ - 0 nm - -
PW NDB - 1,511 ft / 461 m 52.22882˚ 77.12368˚ 2 nm 2 nm 43° / 43° PAVLODAR NDB
TVG213 FIX - 2,626 ft / 800 m 52.25506˚ 77.16331˚ 2 nm 4 nm 43° / 43° -
+52.22_+077.21 DME - 3,741 ft / 1,140 m 52.21835˚ 77.21229˚ 2 nm 7 nm 141° / 141° -
EKTUS FIX - 21,584 ft / 6,579 m 51.70694˚ 76.88472˚ 33 nm 40 nm 202° / 201° -
+51.22_+076.70 DME - 38,057 ft / 11,600 m 51.21962˚ 76.70322˚ 30 nm 70 nm 193° / 193° -
GOBSO FIX - 38,057 ft / 11,600 m 50.92583˚ 76.59028˚ 18 nm 88 nm 194° / 194° -
AGINU FIX - 38,057 ft / 11,600 m 49.80000˚ 76.18333˚ 69 nm 158 nm 193° / 193° -
ULKAP FIX - 38,057 ft / 11,600 m 49.12472˚ 75.89223˚ 42 nm 200 nm 196° / 196° -
AGPIN FIX - 38,057 ft / 11,600 m 48.65861˚ 75.69611˚ 29 nm 229 nm 196° / 195° -
+48.13_+075.48 DME - 38,057 ft / 11,600 m 48.13172˚ 75.47533˚ 32 nm 262 nm 196° / 195° -
OBARU FIX - 18,694 ft / 5,698 m 47.48806˚ 75.22000˚ 40 nm 302 nm 195° / 195° -
O UAAH APT - 1,414 ft / 431 m 46.89429˚ 75.00444˚ 36 nm 339 nm 194° / 194° BALKHASH

Altitude Profile

Advertisement - Login to hide

Weather


0- 5 10 15 20 25 30 35+ Temperature / ° C

Clouds and Precipitation
Forecast for 2017-12-14 12:00 UTC. Updated an hour ago

Ground ~20,000 ft ~40,000 ft Winds

UASP

Details ICAO UASP (PWQ)
Name PAVLODAR
Region Kazakhstan and Kyrgyzstan
Timezone Asia/Almaty (UTC+6.0)
Stats Elevation 410 ft / 125 m (AMSL)
Location 52.194862° 77.074028°
Runways 1
Magnetic Variation 9.238° E

METAR

UASP 141000Z 11001MPS 9000 SCT240 M21/M23 Q1051 R21/4/0350 NOSIG RMK QFE776/1035

Decode

TAF

Not found

Departure Runways

ID Width Length Bearing (true) Bearing (mag) Surface Threshold Offset Overrun Length
03 148 ft / 45 m 8,145 ft / 2,483 m 42.75° 33.51° Concrete 0 ft / 0 m 0 ft / 0 m
21 148 ft / 45 m 8,145 ft / 2,483 m 222.77° 213.53° Concrete 0 ft / 0 m 0 ft / 0 m

UAAH

Details ICAO UAAH
Name BALKHASH
Region Kazakhstan and Kyrgyzstan
Timezone Asia/Almaty (UTC+6.0)
Stats Elevation 1,446 ft / 441 m (AMSL)
Location 46.894188° 75.004754°
Runways 1
Magnetic Variation 7.007° E

METAR

UAAH 141000Z 06006MPS CAVOK M12/M16 Q1038 R05/750235 NOSIG RMK QFE740/0987

Decode

TAF

Not found

Destination Runways

ID Width Length Bearing (true) Bearing (mag) Surface Threshold Offset Overrun Length
05 131 ft / 40 m 8,218 ft / 2,505 m 52.40° 45.39° Concrete 0 ft / 0 m 0 ft / 0 m
23 131 ft / 40 m 8,218 ft / 2,505 m 232.42° 225.41° Concrete 0 ft / 0 m 0 ft / 0 m